createdAt,value
2023-05-14T00:00:11.902Z,73.18
2023-05-14T00:03:00.754Z,73.75
2023-05-14T00:05:29.864Z,73.84
2023-05-14T00:07:58.472Z,74.32
2023-05-14T00:10:28.235Z,74.45
2023-05-14T00:12:56.888Z,73.96
2023-05-14T00:15:27.390Z,74.12
2023-05-14T00:17:56.183Z,74.12
2023-05-14T00:20:25.433Z,73.95
2023-05-14T00:22:54.245Z,73.46
2023-05-14T00:25:23.189Z,73.65
2023-05-14T00:27:51.905Z,73.92
2023-05-14T00:30:20.977Z,73.85
2023-05-14T00:32:51.122Z,73.53
2023-05-14T00:35:21.464Z,73.61
2023-05-14T00:37:50.193Z,73.72
2023-05-14T00:40:19.232Z,73.67
2023-05-14T00:42:48.014Z,73.44
2023-05-14T00:45:16.988Z,73.58
2023-05-14T00:47:46.232Z,73.20
2023-05-14T00:50:17.989Z,72.98
2023-05-14T00:52:47.660Z,72.79
2023-05-14T00:55:18.220Z,73.00
2023-05-14T00:57:46.983Z,72.87
2023-05-14T01:00:17.012Z,72.80
2023-05-14T01:02:45.793Z,72.72
2023-05-14T01:05:16.446Z,72.58
2023-05-14T01:07:59.684Z,72.59
2023-05-14T01:10:40.072Z,72.99
2023-05-14T01:13:21.030Z,73.11
2023-05-14T01:15:51.643Z,72.84
2023-05-14T01:18:22.232Z,72.93
2023-05-14T01:20:53.336Z,72.88
2023-05-14T01:23:23.429Z,72.54
2023-05-14T01:25:52.440Z,72.53
2023-05-14T01:28:30.107Z,73.12
2023-05-14T01:31:06.419Z,73.10
2023-05-14T01:33:37.785Z,73.33
2023-05-14T01:36:07.987Z,73.21
2023-05-14T01:38:39.721Z,73.47
2023-05-14T01:41:09.173Z,73.36
2023-05-14T01:43:39.044Z,72.82
2023-05-14T01:46:08.296Z,72.06
2023-05-14T01:48:37.819Z,72.06
2023-05-14T01:51:06.866Z,72.13
2023-05-14T01:53:36.946Z,71.62
2023-05-14T01:56:06.515Z,71.46
2023-05-14T01:58:35.370Z,71.67
2023-05-14T02:01:04.386Z,71.42
2023-05-14T02:03:33.106Z,71.33
2023-05-14T02:06:02.175Z,71.58
2023-05-14T02:08:30.822Z,71.04
2023-05-14T02:11:01.258Z,70.73
2023-05-14T02:13:29.866Z,70.42
2023-05-14T02:15:58.925Z,70.09
2023-05-14T02:18:27.805Z,70.62
2023-05-14T02:20:57.548Z,71.19
2023-05-14T02:23:34.460Z,71.27
2023-05-14T02:26:09.670Z,71.54
2023-05-14T02:28:38.464Z,71.68
2023-05-14T02:31:07.588Z,71.68
2023-05-14T02:33:36.445Z,71.32
2023-05-14T02:36:05.552Z,71.38
2023-05-14T02:38:34.319Z,71.38
2023-05-14T02:41:03.306Z,71.27
2023-05-14T02:43:33.360Z,71.66
2023-05-14T02:46:02.299Z,71.86
2023-05-14T02:48:30.931Z,72.02
2023-05-14T02:50:59.887Z,71.61
2023-05-14T02:53:28.769Z,71.72
2023-05-14T02:55:57.689Z,71.65
2023-05-14T02:58:28.401Z,72.19
2023-05-14T03:00:59.423Z,72.53
2023-05-14T03:03:29.955Z,72.75
2023-05-14T03:05:59.706Z,73.25
2023-05-14T03:08:28.362Z,73.65
2023-05-14T03:10:57.316Z,73.68
2023-05-14T03:13:26.014Z,73.25
2023-05-14T03:15:56.704Z,73.55
2023-05-14T03:18:28.371Z,74.14
2023-05-14T03:20:57.477Z,74.28
2023-05-14T03:23:26.206Z,74.07
2023-05-14T03:25:55.132Z,73.95
2023-05-14T03:28:26.379Z,74.23
2023-05-14T03:30:55.588Z,74.14
2023-05-14T03:33:24.464Z,74.55
2023-05-14T03:35:54.859Z,74.27
2023-05-14T03:38:23.655Z,74.66
2023-05-14T03:40:52.678Z,74.49
2023-05-14T03:43:21.366Z,74.64
2023-05-14T03:45:52.728Z,75.33
2023-05-14T03:48:22.139Z,75.37
2023-05-14T03:50:51.374Z,75.68
2023-05-14T03:53:21.551Z,75.88
2023-05-14T03:55:50.453Z,76.39
2023-05-14T03:58:19.121Z,76.61
2023-05-14T04:00:48.179Z,76.55
2023-05-14T04:03:17.067Z,76.43
2023-05-14T04:05:46.232Z,76.16
2023-05-14T04:08:15.046Z,76.35
2023-05-14T04:10:45.687Z,76.22
2023-05-14T04:13:14.325Z,76.43
2023-05-14T04:15:43.301Z,75.89
2023-05-14T04:18:11.988Z,76.03
2023-05-14T04:20:41.128Z,75.46
2023-05-14T04:23:09.808Z,75.25
2023-05-14T04:25:38.799Z,74.41
2023-05-14T04:28:08.889Z,74.46
2023-05-14T04:30:37.906Z,73.29
2023-05-14T04:33:06.738Z,72.40
2023-05-14T04:35:36.052Z,72.50
2023-05-14T04:38:04.848Z,71.91
2023-05-14T04:40:33.813Z,72.11
2023-05-14T04:43:02.611Z,71.56
2023-05-14T04:45:34.387Z,70.82
2023-05-14T04:48:04.023Z,69.95
2023-05-14T04:50:33.012Z,69.08
2023-05-14T04:53:01.878Z,68.25
2023-05-14T04:55:31.328Z,68.07
2023-05-14T04:58:00.115Z,67.27
2023-05-14T05:00:29.767Z,66.99
2023-05-14T05:02:59.860Z,67.39
2023-05-14T05:05:28.869Z,66.49
2023-05-14T05:07:57.453Z,66.32
2023-05-14T05:10:26.740Z,65.72
2023-05-14T05:12:55.579Z,63.38
2023-05-14T05:15:26.517Z,62.88
2023-05-14T05:17:55.593Z,62.41
2023-05-14T05:20:28.122Z,62.55
2023-05-14T05:22:57.111Z,62.78
2023-05-14T05:25:26.226Z,62.06
2023-05-14T05:27:54.872Z,61.86
2023-05-14T05:30:24.103Z,61.05
2023-05-14T05:32:53.093Z,60.18
2023-05-14T05:35:22.028Z,58.92
2023-05-14T05:37:52.174Z,58.22
2023-05-14T05:40:21.237Z,56.22
2023-05-14T05:42:49.950Z,55.75
2023-05-14T05:45:18.926Z,54.34
2023-05-14T05:47:47.782Z,55.56
2023-05-14T05:50:17.941Z,53.86
2023-05-14T05:52:47.902Z,53.77
2023-05-14T05:55:18.258Z,53.25
2023-05-14T05:57:47.104Z,52.39
2023-05-14T06:00:16.997Z,52.88
2023-05-14T06:02:47.797Z,51.16
2023-05-14T06:05:17.009Z,51.93
2023-05-14T06:07:45.875Z,51.09
2023-05-14T06:10:14.958Z,49.33
2023-05-14T06:12:45.074Z,49.67
2023-05-14T06:15:14.169Z,48.72
2023-05-14T06:17:42.987Z,48.26
2023-05-14T06:20:13.365Z,47.15
2023-05-14T06:22:42.224Z,46.54
2023-05-14T06:25:12.750Z,46.63
2023-05-14T06:27:41.670Z,46.30
2023-05-14T06:30:14.258Z,44.55
2023-05-14T06:32:43.166Z,44.74
2023-05-14T06:35:12.163Z,43.40
2023-05-14T06:37:40.826Z,42.85
2023-05-14T06:40:11.327Z,42.56
2023-05-14T06:42:40.034Z,41.92
2023-05-14T06:45:11.503Z,42.16
2023-05-14T06:47:40.410Z,42.80
2023-05-14T06:50:11.001Z,41.88
2023-05-14T06:52:40.244Z,40.40
2023-05-14T06:55:10.125Z,39.24
2023-05-14T06:57:40.659Z,38.64
2023-05-14T07:00:14.356Z,37.57
2023-05-14T07:02:43.203Z,38.31
2023-05-14T07:05:12.334Z,37.61
2023-05-14T07:07:41.338Z,37.77
2023-05-14T07:10:10.508Z,37.89
2023-05-14T07:12:39.226Z,38.50
2023-05-14T07:15:12.301Z,37.79
2023-05-14T07:17:41.159Z,36.73
2023-05-14T07:20:11.604Z,37.01
2023-05-14T07:22:40.432Z,36.21
2023-05-14T07:25:10.256Z,36.78
2023-05-14T07:27:39.016Z,35.67
2023-05-14T07:30:09.696Z,36.44
2023-05-14T07:32:39.953Z,37.41
2023-05-14T07:35:11.731Z,35.81
2023-05-14T07:37:40.884Z,36.58
2023-05-14T07:40:11.175Z,35.23
2023-05-14T07:42:39.946Z,35.03
2023-05-14T07:45:10.785Z,35.05
2023-05-14T07:47:41.772Z,33.55
2023-05-14T07:50:12.672Z,34.56
2023-05-14T07:52:41.393Z,32.85
2023-05-14T07:55:11.562Z,33.47
2023-05-14T07:57:40.871Z,33.92
2023-05-14T08:00:11.307Z,34.18
2023-05-14T08:02:44.642Z,31.93
2023-05-14T08:05:13.940Z,31.08
2023-05-14T08:07:42.563Z,31.37
2023-05-14T08:10:12.148Z,31.49
2023-05-14T08:12:41.051Z,31.30
2023-05-14T08:15:11.325Z,30.38
2023-05-14T08:17:39.979Z,31.20
2023-05-14T08:20:12.720Z,32.24
2023-05-14T08:22:41.666Z,31.38
2023-05-14T08:25:11.580Z,32.25
2023-05-14T08:27:40.334Z,32.40
2023-05-14T08:30:10.254Z,31.96
2023-05-14T08:32:39.544Z,32.29
2023-05-14T08:35:10.967Z,32.59
2023-05-14T08:37:39.807Z,32.13
2023-05-14T08:40:10.785Z,31.36
2023-05-14T08:42:41.805Z,31.68
2023-05-14T08:45:19.142Z,31.16
2023-05-14T08:47:51.397Z,31.44
2023-05-14T08:50:23.542Z,30.73
2023-05-14T08:52:53.245Z,31.17
2023-05-14T08:55:23.677Z,31.27
2023-05-14T08:57:52.387Z,29.67
2023-05-14T09:00:23.218Z,30.74
2023-05-14T09:02:53.456Z,29.59
2023-05-14T09:05:25.321Z,30.38
2023-05-14T09:07:54.332Z,30.95
2023-05-14T09:10:23.843Z,29.77
2023-05-14T09:12:52.760Z,29.71
2023-05-14T09:15:21.906Z,29.49
2023-05-14T09:17:50.798Z,29.91
2023-05-14T09:20:21.019Z,29.73
2023-05-14T09:22:54.817Z,29.52
2023-05-14T09:25:28.989Z,29.83
2023-05-14T09:27:59.035Z,29.10
2023-05-14T09:30:28.284Z,28.32
2023-05-14T09:32:57.054Z,27.83
2023-05-14T09:35:26.580Z,27.70
2023-05-14T09:37:57.159Z,27.27
2023-05-14T09:40:26.379Z,26.80
2023-05-14T09:42:56.209Z,26.88
2023-05-14T09:45:25.284Z,26.58
2023-05-14T09:47:54.171Z,26.67
2023-05-14T09:50:23.370Z,25.31
2023-05-14T09:52:52.196Z,25.47
2023-05-14T09:55:23.992Z,25.50
2023-05-14T09:57:52.782Z,26.27
2023-05-14T10:00:23.466Z,24.40
2023-05-14T10:02:54.811Z,25.52
2023-05-14T10:05:26.827Z,25.21
2023-05-14T10:07:58.530Z,25.32
2023-05-14T10:10:30.818Z,24.89
2023-05-14T10:13:05.679Z,24.97
2023-05-14T10:15:44.230Z,24.19
2023-05-14T10:18:17.672Z,23.92
2023-05-14T10:20:53.174Z,23.67
2023-05-14T10:23:22.122Z,23.70
2023-05-14T10:25:52.750Z,23.03
2023-05-14T10:28:21.767Z,24.31
2023-05-14T10:30:51.607Z,24.13
2023-05-14T10:33:20.342Z,24.47
2023-05-14T10:36:08.492Z,23.22
2023-05-14T10:38:39.164Z,23.37
2023-05-14T10:41:15.000Z,23.77
2023-05-14T10:43:44.630Z,24.55
2023-05-14T10:46:15.763Z,24.86
2023-05-14T10:48:46.989Z,25.07
2023-05-14T10:51:20.859Z,26.35
2023-05-14T10:53:50.288Z,26.51
2023-05-14T10:56:21.577Z,26.68
2023-05-14T10:58:51.855Z,25.46
2023-05-14T11:01:25.564Z,25.84
2023-05-14T11:03:56.036Z,25.23
2023-05-14T11:06:27.494Z,24.67
2023-05-14T11:08:57.014Z,25.19
2023-05-14T11:11:27.570Z,25.10
2023-05-14T11:13:57.995Z,24.58
2023-05-14T11:16:31.016Z,25.11
2023-05-14T11:19:04.254Z,23.52
2023-05-14T11:21:33.384Z,24.39
2023-05-14T11:24:02.267Z,23.66
2023-05-14T11:26:33.728Z,24.13
2023-05-14T11:29:02.566Z,25.01
2023-05-14T11:31:31.880Z,24.07
2023-05-14T11:34:01.042Z,23.82
2023-05-14T11:36:30.126Z,24.12
2023-05-14T11:38:58.847Z,24.55
2023-05-14T11:41:28.174Z,23.64
2023-05-14T11:43:59.684Z,23.60
2023-05-14T11:46:30.996Z,23.29
2023-05-14T11:48:59.862Z,21.99
2023-05-14T11:51:28.948Z,22.58
2023-05-14T11:53:58.893Z,22.67
2023-05-14T11:56:28.038Z,22.78
2023-05-14T11:58:58.967Z,22.39
2023-05-14T12:01:30.206Z,21.85
2023-05-14T12:04:01.367Z,21.96
2023-05-14T12:06:33.142Z,23.07
2023-05-14T12:09:01.976Z,23.36
2023-05-14T12:11:32.945Z,23.71
2023-05-14T12:14:11.254Z,24.08
2023-05-14T12:16:42.954Z,24.82
2023-05-14T12:19:12.756Z,25.31
2023-05-14T12:21:44.162Z,25.89
2023-05-14T12:24:15.011Z,25.98
2023-05-14T12:26:47.179Z,26.35
2023-05-14T12:29:18.219Z,25.92
2023-05-14T12:31:49.429Z,26.20
2023-05-14T12:34:18.642Z,26.49
2023-05-14T12:36:48.043Z,26.70
2023-05-14T12:39:16.854Z,26.67
2023-05-14T12:41:45.780Z,27.14
2023-05-14T12:44:15.893Z,26.73
2023-05-14T12:46:44.903Z,26.66
2023-05-14T12:49:13.628Z,26.88
2023-05-14T12:51:42.559Z,26.62
2023-05-14T12:54:11.938Z,27.44
2023-05-14T12:56:41.065Z,27.08
2023-05-14T12:59:10.717Z,27.18
2023-05-14T13:01:42.032Z,26.55
2023-05-14T13:04:12.553Z,26.78
2023-05-14T13:06:41.986Z,27.14
2023-05-14T13:09:10.626Z,27.38
2023-05-14T13:11:39.583Z,27.49
2023-05-14T13:14:08.280Z,27.60
2023-05-14T13:16:37.297Z,27.72
2023-05-14T13:19:07.581Z,27.61
2023-05-14T13:21:36.710Z,28.17
2023-05-14T13:24:05.972Z,27.50
2023-05-14T13:26:34.975Z,27.92
2023-05-14T13:29:03.819Z,27.83
2023-05-14T13:31:32.916Z,28.14
2023-05-14T13:34:02.631Z,28.25
2023-05-14T13:36:33.126Z,28.25
2023-05-14T13:39:01.835Z,28.62
2023-05-14T13:41:34.945Z,28.06
2023-05-14T13:44:03.606Z,27.58
2023-05-14T13:46:32.650Z,28.48
2023-05-14T13:49:01.414Z,28.62
2023-05-14T13:51:31.322Z,28.41
2023-05-14T13:54:01.321Z,27.86
2023-05-14T13:56:30.466Z,28.18
2023-05-14T13:58:59.173Z,28.09
2023-05-14T14:01:30.739Z,28.22
2023-05-14T14:03:59.728Z,28.26
2023-05-14T14:06:28.816Z,28.34
2023-05-14T14:08:57.445Z,28.48
2023-05-14T14:11:27.979Z,28.86
2023-05-14T14:13:56.701Z,28.91
2023-05-14T14:16:25.769Z,28.85
2023-05-14T14:18:54.571Z,28.85
2023-05-14T14:21:23.693Z,29.14
2023-05-14T14:23:52.399Z,28.66
2023-05-14T14:26:21.395Z,28.84
2023-05-14T14:28:51.516Z,28.79
2023-05-14T14:31:21.562Z,28.75
2023-05-14T14:33:50.332Z,28.55
2023-05-14T14:36:19.224Z,28.56
2023-05-14T14:38:47.896Z,28.44
2023-05-14T14:41:16.945Z,29.17
2023-05-14T14:43:45.656Z,29.19
2023-05-14T14:46:15.995Z,28.93
2023-05-14T14:48:44.779Z,29.20
2023-05-14T14:51:13.912Z,28.00
2023-05-14T14:53:42.893Z,28.61
2023-05-14T14:56:11.884Z,29.04
2023-05-14T14:58:40.541Z,28.32
2023-05-14T15:01:09.820Z,27.90
2023-05-14T15:03:40.029Z,28.19
2023-05-14T15:06:09.447Z,28.26
2023-05-14T15:08:38.473Z,28.31
2023-05-14T15:11:07.455Z,28.50
2023-05-14T15:13:36.285Z,28.67
2023-05-14T15:16:05.407Z,28.33
2023-05-14T15:18:34.157Z,28.51
2023-05-14T15:21:04.752Z,28.84
2023-05-14T15:23:33.446Z,28.74
2023-05-14T15:26:02.464Z,28.75
2023-05-14T15:28:31.140Z,28.98
2023-05-14T15:31:02.473Z,29.19
2023-05-14T15:33:31.364Z,28.43
2023-05-14T15:36:00.519Z,28.97
2023-05-14T15:38:30.537Z,29.13
2023-05-14T15:40:59.819Z,29.22
2023-05-14T15:43:28.529Z,28.99
2023-05-14T15:45:57.453Z,28.99
2023-05-14T15:48:26.270Z,30.00
2023-05-14T15:50:55.623Z,29.45
2023-05-14T15:53:24.697Z,29.83
2023-05-14T15:55:55.042Z,29.49
2023-05-14T15:58:23.714Z,29.65
2023-05-14T16:00:52.640Z,30.11
2023-05-14T16:03:21.784Z,29.66
2023-05-14T16:05:50.949Z,29.97
2023-05-14T16:08:19.645Z,29.72
2023-05-14T16:10:48.634Z,29.35
2023-05-14T16:13:18.660Z,29.51
2023-05-14T16:15:48.260Z,29.61
2023-05-14T16:18:16.998Z,29.44
2023-05-14T16:20:45.923Z,29.51
2023-05-14T16:23:14.681Z,29.66
2023-05-14T16:25:43.680Z,29.78
2023-05-14T16:28:12.485Z,29.92
2023-05-14T16:30:43.014Z,29.82
2023-05-14T16:33:11.893Z,29.88
2023-05-14T16:35:40.945Z,30.17
2023-05-14T16:38:09.689Z,29.54
2023-05-14T16:40:38.704Z,29.51
2023-05-14T16:43:07.564Z,29.41
2023-05-14T16:45:37.500Z,29.70
2023-05-14T16:48:08.538Z,29.86
2023-05-14T16:50:37.703Z,30.20
2023-05-14T16:53:06.475Z,30.45
2023-05-14T16:55:35.516Z,30.45
2023-05-14T16:58:04.325Z,29.88
2023-05-14T17:00:33.293Z,30.53
2023-05-14T17:03:02.396Z,30.63
2023-05-14T17:05:32.926Z,29.94
2023-05-14T17:08:01.954Z,30.08
2023-05-14T17:10:33.176Z,30.44
2023-05-14T17:13:02.386Z,30.50
2023-05-14T17:15:49.300Z,30.31
2023-05-14T17:18:18.489Z,30.30
2023-05-14T17:20:48.765Z,30.88
2023-05-14T17:23:19.205Z,30.69
2023-05-14T17:25:48.359Z,30.89
2023-05-14T17:28:17.115Z,31.00
2023-05-14T17:30:46.156Z,31.30
2023-05-14T17:33:14.989Z,31.34
2023-05-14T17:35:45.825Z,31.79
2023-05-14T17:38:17.103Z,31.61
2023-05-14T17:40:46.105Z,31.53
2023-05-14T17:43:15.069Z,31.82
2023-05-14T17:45:54.071Z,32.25
2023-05-14T17:48:24.088Z,32.18
2023-05-14T17:50:53.393Z,32.40
2023-05-14T17:53:23.692Z,32.25
2023-05-14T17:55:52.888Z,32.60
2023-05-14T17:58:21.697Z,32.82
2023-05-14T18:00:50.894Z,32.79
2023-05-14T18:03:20.481Z,32.89
2023-05-14T18:05:50.631Z,33.33
2023-05-14T18:08:19.446Z,33.48
2023-05-14T18:10:49.810Z,33.45
2023-05-14T18:13:18.569Z,33.74
2023-05-14T18:15:47.711Z,33.87
2023-05-14T18:18:18.669Z,34.41
2023-05-14T18:20:48.122Z,34.87
2023-05-14T18:23:16.901Z,34.95
2023-05-14T18:25:46.113Z,35.55
2023-05-14T18:28:16.551Z,35.15
2023-05-14T18:30:45.791Z,35.72
2023-05-14T18:33:14.743Z,35.57
2023-05-14T18:35:44.649Z,35.99
2023-05-14T18:38:13.924Z,36.38
2023-05-14T18:40:43.014Z,36.17
2023-05-14T18:43:13.440Z,36.27
2023-05-14T18:45:46.069Z,36.14
2023-05-14T18:48:15.485Z,36.20
2023-05-14T18:50:44.498Z,36.55
2023-05-14T18:53:13.349Z,36.48
2023-05-14T18:55:42.463Z,36.71
2023-05-14T18:58:12.155Z,36.55
2023-05-14T19:00:41.406Z,37.18
2023-05-14T19:03:11.716Z,37.33
2023-05-14T19:05:40.850Z,37.33
2023-05-14T19:08:09.695Z,37.80
2023-05-14T19:10:38.691Z,38.00
2023-05-14T19:13:07.440Z,38.16
2023-05-14T19:15:36.673Z,38.35
2023-05-14T19:18:05.771Z,38.73
2023-05-14T19:20:36.170Z,39.07
2023-05-14T19:23:04.950Z,39.79
2023-05-14T19:25:34.061Z,40.17
2023-05-14T19:28:04.857Z,40.90
2023-05-14T19:30:33.831Z,41.04
2023-05-14T19:33:02.601Z,40.78
2023-05-14T19:35:32.402Z,40.97
2023-05-14T19:38:02.604Z,41.08
2023-05-14T19:40:31.721Z,41.76
2023-05-14T19:43:00.584Z,41.82
2023-05-14T19:45:29.715Z,41.51
2023-05-14T19:47:59.018Z,41.84
2023-05-14T19:50:28.073Z,42.74
2023-05-14T19:52:57.617Z,42.88
2023-05-14T19:55:28.008Z,42.76
2023-05-14T19:57:57.755Z,43.21
2023-05-14T20:00:27.221Z,43.64
2023-05-14T20:02:59.537Z,43.09
2023-05-14T20:05:29.149Z,43.67
2023-05-14T20:07:58.037Z,43.52
2023-05-14T20:10:28.654Z,43.64
2023-05-14T20:12:57.506Z,43.83
2023-05-14T20:15:27.779Z,43.88
2023-05-14T20:17:56.692Z,44.18
2023-05-14T20:20:27.091Z,43.95
2023-05-14T20:22:57.112Z,44.04
2023-05-14T20:25:28.758Z,43.95
2023-05-14T20:27:57.626Z,44.01
2023-05-14T20:30:26.883Z,44.33
2023-05-14T20:32:55.939Z,44.61
2023-05-14T20:35:25.210Z,44.17
2023-05-14T20:37:54.430Z,44.44
2023-05-14T20:40:23.587Z,44.20
2023-05-14T20:42:53.714Z,44.16
2023-05-14T20:45:23.342Z,44.00
2023-05-14T20:47:52.725Z,44.39
2023-05-14T20:50:22.678Z,43.56
2023-05-14T20:52:51.484Z,43.07
2023-05-14T20:55:21.772Z,43.05
2023-05-14T20:57:50.685Z,42.77
2023-05-14T21:00:21.641Z,43.01
2023-05-14T21:02:50.551Z,42.98
2023-05-14T21:05:20.815Z,42.15
2023-05-14T21:07:49.609Z,42.56
2023-05-14T21:10:18.542Z,42.44
2023-05-14T21:12:47.172Z,42.65
2023-05-14T21:15:16.199Z,42.68
2023-05-14T21:17:46.303Z,42.81
2023-05-14T21:20:15.708Z,42.70
2023-05-14T21:22:44.474Z,42.43
2023-05-14T21:25:13.447Z,42.35
2023-05-14T21:27:42.096Z,42.51
2023-05-14T21:30:12.900Z,42.03
2023-05-14T21:32:41.822Z,42.21
2023-05-14T21:35:12.611Z,42.01
2023-05-14T21:37:41.719Z,41.83
2023-05-14T21:40:12.604Z,42.49
2023-05-14T21:42:41.512Z,41.89
2023-05-14T21:45:11.547Z,41.85
2023-05-14T21:47:40.455Z,41.90
2023-05-14T21:50:13.069Z,42.38
2023-05-14T21:52:41.747Z,42.01
2023-05-14T21:55:11.290Z,41.93
2023-05-14T21:57:41.346Z,41.62
2023-05-14T22:00:12.480Z,41.65
2023-05-14T22:02:43.813Z,42.07
2023-05-14T22:05:14.195Z,41.98
2023-05-14T22:07:43.015Z,42.43
2023-05-14T22:10:14.377Z,41.64
2023-05-14T22:12:44.979Z,41.96
2023-05-14T22:15:14.081Z,41.77
2023-05-14T22:17:42.798Z,41.80
2023-05-14T22:20:13.620Z,41.56
2023-05-14T22:22:42.384Z,41.66
2023-05-14T22:25:11.791Z,41.68
2023-05-14T22:27:40.526Z,41.37
2023-05-14T22:30:10.705Z,41.11
2023-05-14T22:32:39.541Z,41.46
2023-05-14T22:35:09.463Z,41.67
2023-05-14T22:37:39.570Z,41.43
2023-05-14T22:40:10.144Z,41.81
2023-05-14T22:42:38.914Z,41.53
2023-05-14T22:45:09.608Z,41.65
2023-05-14T22:47:39.459Z,41.31
2023-05-14T22:50:11.651Z,41.35
2023-05-14T22:52:42.433Z,41.59
2023-05-14T22:55:11.586Z,41.48
2023-05-14T22:57:40.513Z,41.32
2023-05-14T23:00:11.198Z,41.66
2023-05-14T23:02:40.296Z,41.85
2023-05-14T23:05:10.614Z,41.32
2023-05-14T23:07:39.359Z,41.63
2023-05-14T23:10:11.428Z,41.65
2023-05-14T23:12:40.097Z,41.75
2023-05-14T23:15:09.890Z,41.92
2023-05-14T23:17:39.431Z,41.76
2023-05-14T23:20:12.672Z,41.61
2023-05-14T23:22:41.631Z,42.01
2023-05-14T23:25:12.195Z,42.33
2023-05-14T23:27:41.086Z,42.04
2023-05-14T23:30:11.745Z,42.05
2023-05-14T23:32:40.509Z,41.91
2023-05-14T23:35:10.289Z,42.44
2023-05-14T23:37:42.617Z,42.24
2023-05-14T23:40:13.684Z,42.11
2023-05-14T23:42:42.829Z,42.27
2023-05-14T23:45:13.405Z,42.48
2023-05-14T23:47:42.794Z,42.33
2023-05-14T23:50:12.078Z,42.67
2023-05-14T23:52:40.808Z,42.80
2023-05-14T23:55:12.264Z,43.09
2023-05-14T23:57:41.105Z,42.64
